PWSweather.com
Personal Weather Stations
Station Observations
CAMPIGIANO
Campi Bisenzio, FirenzeIT

Campi BisenzioFirenzeIT

Lat: 43.8175012, Lon: 11.1391085

Elevation: 106

Station Type: LaCrosse WS2350

Latest ConditionsUpdated 2:45:02 PM GMT+01:01 Tuesday, May 24, 2016
Currently Today's Max Today's Min Today's Average
Temperature 72.3°F22.4°C 73.3°F22.9°C 52.9°F11.6°C 61.5°F16.4°C
Dew Point 53.7°F12.1°C 56.9°F13.8°C 47.5°F8.6°C 51.8°F11.0°C
Winds 2.3 mph ESE3.7 kmh ESE 2.3 mph NW3.7 kmh NW - 0.2 mph 0.3 kmh
Wind Gusts 2.3 mph3.7 kmh 4.6 mph7.4 kmh - -
Humidity 52% 83% 50% 72%
Pressure 29.78 in1008.5 mb 29.79 in1008.8 mb 29.72 in1006.4 mb -
Hour Temp Dew Point Humidity Winds Wind Gusts Pressure Precip Precip Rate Daily Precip Total
02:45 PM 72.3°F22.4°C 53.7°F12.1°C 52% 2.3 mph ESE3.7 kmh ESE 2.3 mph3.7 kmh 29.78 in1008.5 mb - 0.00 in0.0 mm 0.00 in0.0 mm
02:30 PM 72.3°F22.4°C 53.7°F12.1°C 52% 1.2 mph S1.9 kmh S 2.3 mph3.7 kmh 29.78 in1008.5 mb - 0.00 in0.0 mm 0.00 in0.0 mm
02:15 PM 72.4°F22.4°C 53.8°F12.1°C 52% Calm Calm 1.2 mph1.9 kmh 29.78 in1008.5 mb - 0.00 in0.0 mm 0.00 in0.0 mm
02:00 PM 73.3°F22.9°C 54.1°F12.3°C 51% Calm Calm -- 29.78 in1008.5 mb - 0.00 in0.0 mm 0.00 in0.0 mm
01:45 PM 73.0°F22.8°C 53.3°F11.8°C 50% 1.2 mph S1.9 kmh S 3.5 mph5.6 kmh 29.78 in1008.5 mb - 0.00 in0.0 mm 0.00 in0.0 mm
01:30 PM 73.2°F22.9°C 54.5°F12.5°C 52% 2.3 mph NNW3.7 kmh NNW -- 29.78 in1008.5 mb - 0.00 in0.0 mm 0.00 in0.0 mm
01:15 PM 72.3°F22.4°C 53.7°F12.1°C 52% Calm Calm -- 29.77 in1008.1 mb - 0.00 in0.0 mm 0.00 in0.0 mm
01:00 PM 71.8°F22.1°C 54.7°F12.6°C 55% 1.2 mph SSW1.9 kmh SSW 4.6 mph7.4 kmh 29.78 in1008.5 mb - 0.00 in0.0 mm 0.00 in0.0 mm
12:45 PM 71.0°F21.7°C 53.5°F11.9°C 54% 2.3 mph NW3.7 kmh NW 3.5 mph5.6 kmh 29.78 in1008.5 mb - 0.00 in0.0 mm 0.00 in0.0 mm
12:30 PM 72.1°F22.3°C 55.1°F12.8°C 55% Calm Calm -- 29.78 in1008.5 mb - 0.00 in0.0 mm 0.00 in0.0 mm
12:15 PM 70.2°F21.2°C 53.7°F12.1°C 56% Calm Calm -- 29.78 in1008.5 mb - 0.00 in0.0 mm 0.00 in0.0 mm
12:00 PM 71.4°F21.9°C 55.9°F13.3°C 58% Calm Calm -- 29.78 in1008.5 mb - 0.00 in0.0 mm 0.00 in0.0 mm
11:45 AM 71.0°F21.7°C 55.4°F13.0°C 58% Calm Calm -- 29.78 in1008.5 mb - 0.00 in0.0 mm 0.00 in0.0 mm
11:30 AM 71.4°F21.9°C 56.3°F13.5°C 59% Calm Calm -- 29.78 in1008.5 mb - 0.00 in0.0 mm 0.00 in0.0 mm
11:15 AM 70.6°F21.4°C 56.9°F13.8°C 62% Calm Calm -- 29.78 in1008.5 mb - 0.00 in0.0 mm 0.00 in0.0 mm
11:00 AM 69.8°F21.0°C 56.2°F13.4°C 62% Calm Calm -- 29.78 in1008.5 mb - 0.00 in0.0 mm 0.00 in0.0 mm
10:45 AM 68.7°F20.4°C 56.0°F13.3°C 64% Calm Calm -- 29.78 in1008.5 mb - 0.00 in0.0 mm 0.00 in0.0 mm
10:30 AM 67.9°F19.9°C 55.3°F12.9°C 64% Calm Calm -- 29.78 in1008.5 mb - 0.00 in0.0 mm 0.00 in0.0 mm
10:15 AM 68.5°F20.3°C 56.3°F13.5°C 65% Calm Calm -- 29.79 in1008.8 mb - 0.00 in0.0 mm 0.00 in0.0 mm
10:00 AM 66.8°F19.3°C 55.5°F13.1°C 67% Calm Calm -- 29.79 in1008.8 mb - 0.00 in0.0 mm 0.00 in0.0 mm
09:45 AM 65.9°F18.8°C 54.6°F12.6°C 67% Calm Calm -- 29.79 in1008.8 mb - 0.00 in0.0 mm 0.00 in0.0 mm
09:30 AM 65.3°F18.5°C 54.5°F12.5°C 68% Calm Calm -- 29.79 in1008.8 mb - 0.00 in0.0 mm 0.00 in0.0 mm
09:15 AM 63.5°F17.5°C 53.9°F12.2°C 71% Calm Calm -- 29.79 in1008.8 mb - 0.00 in0.0 mm 0.00 in0.0 mm
09:00 AM 62.7°F17.1°C 53.5°F11.9°C 72% Calm Calm -- 29.78 in1008.5 mb - 0.00 in0.0 mm 0.00 in0.0 mm
08:45 AM 60.4°F15.8°C 52.5°F11.4°C 75% Calm Calm -- 29.78 in1008.5 mb - 0.00 in0.0 mm 0.00 in0.0 mm
08:30 AM 60.0°F15.6°C 52.4°F11.3°C 76% Calm Calm -- 29.77 in1008.1 mb - 0.00 in0.0 mm 0.00 in0.0 mm
08:15 AM 59.9°F15.5°C 52.7°F11.5°C 77% Calm Calm -- 29.77 in1008.1 mb - 0.00 in0.0 mm 0.00 in0.0 mm
08:00 AM 59.0°F15.0°C 52.2°F11.2°C 78% Calm Calm -- 29.77 in1008.1 mb - 0.00 in0.0 mm 0.00 in0.0 mm
07:45 AM 58.7°F14.8°C 52.2°F11.2°C 79% Calm Calm -- 29.77 in1008.1 mb - 0.00 in0.0 mm 0.00 in0.0 mm
07:30 AM 57.7°F14.3°C 51.6°F10.9°C 80% Calm Calm -- 29.77 in1008.1 mb - 0.00 in0.0 mm 0.00 in0.0 mm
07:15 AM 56.3°F13.5°C 50.5°F10.3°C 81% Calm Calm -- 29.77 in1008.1 mb - 0.00 in0.0 mm 0.00 in0.0 mm
07:00 AM 56.0°F13.3°C 49.9°F9.9°C 80% Calm Calm -- 29.77 in1008.1 mb - 0.00 in0.0 mm 0.00 in0.0 mm
06:45 AM 55.5°F13.1°C 49.7°F9.8°C 81% Calm Calm -- 29.77 in1008.1 mb - 0.00 in0.0 mm 0.00 in0.0 mm
06:30 AM 54.8°F12.7°C 49.0°F9.4°C 81% Calm Calm -- 29.76 in1007.8 mb - 0.00 in0.0 mm 0.00 in0.0 mm
06:15 AM 54.3°F12.4°C 48.9°F9.4°C 82% Calm Calm -- 29.76 in1007.8 mb - 0.00 in0.0 mm 0.00 in0.0 mm
06:00 AM 54.0°F12.2°C 48.6°F9.2°C 82% Calm Calm -- 29.76 in1007.8 mb - 0.00 in0.0 mm 0.00 in0.0 mm
05:45 AM 53.4°F11.9°C 48.4°F9.1°C 83% Calm Calm -- 29.76 in1007.8 mb - 0.00 in0.0 mm 0.00 in0.0 mm
05:30 AM 53.2°F11.8°C 48.2°F9.0°C 83% Calm Calm -- 29.75 in1007.5 mb - 0.00 in0.0 mm 0.00 in0.0 mm
05:15 AM 53.2°F11.8°C 48.2°F9.0°C 83% Calm Calm -- 29.74 in1007.1 mb - 0.00 in0.0 mm 0.00 in0.0 mm
05:00 AM 52.9°F11.6°C 47.9°F8.8°C 83% Calm Calm -- 29.74 in1007.1 mb - 0.00 in0.0 mm 0.00 in0.0 mm
04:45 AM 52.9°F11.6°C 47.5°F8.6°C 82% Calm Calm -- 29.73 in1006.8 mb - 0.00 in0.0 mm 0.00 in0.0 mm
04:30 AM 53.4°F11.9°C 48.1°F8.9°C 82% Calm Calm -- 29.73 in1006.8 mb - 0.00 in0.0 mm 0.00 in0.0 mm
04:15 AM 54.1°F12.3°C 48.8°F9.3°C 82% Calm Calm -- 29.73 in1006.8 mb - 0.00 in0.0 mm 0.00 in0.0 mm
04:00 AM 54.0°F12.2°C 48.3°F9.1°C 81% Calm Calm -- 29.73 in1006.8 mb - 0.00 in0.0 mm 0.00 in0.0 mm
03:45 AM 54.9°F12.7°C 49.1°F9.5°C 81% Calm Calm -- 29.73 in1006.8 mb - 0.00 in0.0 mm 0.00 in0.0 mm
03:30 AM 55.0°F12.8°C 49.3°F9.6°C 81% Calm Calm -- 29.73 in1006.8 mb - 0.00 in0.0 mm 0.00 in0.0 mm
03:15 AM 55.2°F12.9°C 49.5°F9.7°C 81% Calm Calm -- 29.73 in1006.8 mb - 0.00 in0.0 mm 0.00 in0.0 mm
03:00 AM 55.6°F13.1°C 49.8°F9.9°C 81% Calm Calm -- 29.72 in1006.4 mb - 0.00 in0.0 mm 0.00 in0.0 mm
02:45 AM 55.8°F13.2°C 50.1°F10.1°C 81% Calm Calm -- 29.72 in1006.4 mb - 0.00 in0.0 mm 0.00 in0.0 mm
02:30 AM 55.9°F13.3°C 50.2°F10.1°C 81% Calm Calm -- 29.72 in1006.4 mb - 0.00 in0.0 mm 0.00 in0.0 mm
02:15 AM 55.9°F13.3°C 50.2°F10.1°C 81% Calm Calm -- 29.73 in1006.8 mb - 0.00 in0.0 mm 0.00 in0.0 mm
02:00 AM 55.9°F13.3°C 50.2°F10.1°C 81% Calm Calm -- 29.72 in1006.4 mb - 0.00 in0.0 mm 0.00 in0.0 mm
01:45 AM 55.6°F13.1°C 49.8°F9.9°C 81% Calm Calm -- 29.73 in1006.8 mb - 0.00 in0.0 mm 0.00 in0.0 mm
01:30 AM 55.7°F13.2°C 49.6°F9.8°C 80% Calm Calm -- 29.72 in1006.4 mb - 0.00 in0.0 mm 0.00 in0.0 mm
01:15 AM 55.8°F13.2°C 49.7°F9.8°C 80% Calm Calm -- 29.73 in1006.8 mb - 0.00 in0.0 mm 0.00 in0.0 mm
01:00 AM 55.9°F13.3°C 49.9°F9.9°C 80% Calm Calm -- 29.72 in1006.4 mb - 0.00 in0.0 mm 0.00 in0.0 mm
12:45 AM 56.8°F13.8°C 50.4°F10.2°C 79% Calm Calm -- 29.72 in1006.4 mb - 0.00 in0.0 mm 0.00 in0.0 mm
12:30 AM 57.4°F14.1°C 50.6°F10.3°C 78% Calm Calm -- 29.72 in1006.4 mb - 0.00 in0.0 mm 0.00 in0.0 mm
12:15 AM 57.4°F14.1°C 50.6°F10.3°C 78% Calm Calm -- 29.72 in1006.4 mb - 0.00 in0.0 mm 0.00 in0.0 mm
12:00 AM 57.4°F14.1°C 50.6°F10.3°C 78% Calm Calm -- 29.72 in1006.4 mb - 0.00 in0.0 mm 0.00 in0.0 mm